createdAt,value
2023-05-14T00:02:08.429Z,13.10
2023-05-14T00:04:35.570Z,13.05
2023-05-14T00:07:03.033Z,13.04
2023-05-14T00:09:30.872Z,13.11
2023-05-14T00:11:58.031Z,13.02
2023-05-14T00:14:25.076Z,12.92
2023-05-14T00:16:52.136Z,12.89
2023-05-14T00:19:19.257Z,12.83
2023-05-14T00:21:47.127Z,12.87
2023-05-14T00:24:14.253Z,12.87
2023-05-14T00:26:41.393Z,12.88
2023-05-14T00:29:08.478Z,12.86
2023-05-14T00:31:35.957Z,12.90
2023-05-14T00:34:03.450Z,12.91
2023-05-14T00:36:31.646Z,12.92
2023-05-14T00:38:58.758Z,12.91
2023-05-14T00:41:25.896Z,12.89
2023-05-14T00:43:52.906Z,12.89
2023-05-14T00:46:20.314Z,12.88
2023-05-14T00:48:48.451Z,12.83
2023-05-14T00:51:16.637Z,12.82
2023-05-14T00:53:43.950Z,12.84
2023-05-14T00:56:11.013Z,12.81
2023-05-14T00:58:38.139Z,12.83
2023-05-14T01:01:05.662Z,12.82
2023-05-14T01:03:33.058Z,12.81
2023-05-14T01:06:17.824Z,12.87
2023-05-14T01:09:01.656Z,12.81
2023-05-14T01:11:30.446Z,12.83
2023-05-14T01:14:16.688Z,12.82
2023-05-14T01:16:46.967Z,12.83
2023-05-14T01:19:34.389Z,12.75
2023-05-14T01:22:02.536Z,12.76
2023-05-14T01:24:29.843Z,12.73
2023-05-14T01:27:01.994Z,12.72
2023-05-14T01:29:29.688Z,12.73
2023-05-14T01:31:57.736Z,12.75
2023-05-14T01:34:25.875Z,12.78
2023-05-14T01:36:53.784Z,12.74
2023-05-14T01:39:21.319Z,12.37
2023-05-14T01:41:49.156Z,12.67
2023-05-14T01:44:16.318Z,12.69
2023-05-14T01:46:43.410Z,12.69
2023-05-14T01:49:10.527Z,12.65
2023-05-14T01:51:38.130Z,12.67
2023-05-14T01:54:05.761Z,12.64
2023-05-14T01:56:33.035Z,12.65
2023-05-14T01:59:00.445Z,12.66
2023-05-14T02:01:27.682Z,12.65
2023-05-14T02:03:54.744Z,12.63
2023-05-14T02:06:22.217Z,12.64
2023-05-14T02:08:49.353Z,12.62
2023-05-14T02:11:17.374Z,12.57
2023-05-14T02:13:44.698Z,12.54
2023-05-14T02:16:11.894Z,12.68
2023-05-14T02:18:39.051Z,12.58
2023-05-14T02:21:06.129Z,12.52
2023-05-14T02:23:41.089Z,12.54
2023-05-14T02:26:10.023Z,12.47
2023-05-14T02:28:37.107Z,12.49
2023-05-14T02:31:04.571Z,12.54
2023-05-14T02:33:31.745Z,12.50
2023-05-14T02:35:59.253Z,12.48
2023-05-14T02:38:26.708Z,12.46
2023-05-14T02:40:56.652Z,12.36
2023-05-14T02:43:23.916Z,12.32
2023-05-14T02:45:52.399Z,12.29
2023-05-14T02:48:19.556Z,12.22
2023-05-14T02:50:47.826Z,12.16
2023-05-14T02:53:15.903Z,12.14
2023-05-14T02:55:43.210Z,12.14
2023-05-14T02:58:10.695Z,12.13
2023-05-14T03:00:37.805Z,12.06
2023-05-14T03:03:05.527Z,11.98
2023-05-14T03:05:33.520Z,12.02
2023-05-14T03:08:01.245Z,12.00
2023-05-14T03:10:28.371Z,11.91
2023-05-14T03:12:55.528Z,11.89
2023-05-14T03:15:22.627Z,11.93
2023-05-14T03:17:50.448Z,11.78
2023-05-14T03:20:18.077Z,11.77
2023-05-14T03:22:47.583Z,11.69
2023-05-14T03:25:17.924Z,11.70
2023-05-14T03:27:45.004Z,11.70
2023-05-14T03:30:12.216Z,11.68
2023-05-14T03:32:40.377Z,11.61
2023-05-14T03:35:08.214Z,11.57
2023-05-14T03:37:35.580Z,11.52
2023-05-14T03:40:03.033Z,11.53
2023-05-14T03:42:30.258Z,11.51
2023-05-14T03:44:58.654Z,11.47
2023-05-14T03:47:25.847Z,11.44
2023-05-14T03:49:53.815Z,11.39
2023-05-14T03:52:21.165Z,11.35
2023-05-14T03:54:48.391Z,11.27
2023-05-14T03:57:16.031Z,11.21
2023-05-14T03:59:43.233Z,11.18
2023-05-14T04:02:10.312Z,11.14
2023-05-14T04:04:37.738Z,11.18
2023-05-14T04:07:05.444Z,11.05
2023-05-14T04:09:32.985Z,11.02
2023-05-14T04:12:00.180Z,10.93
2023-05-14T04:14:27.566Z,10.89
2023-05-14T04:16:54.633Z,10.83
2023-05-14T04:19:22.058Z,10.79
2023-05-14T04:21:49.200Z,10.79
2023-05-14T04:24:17.808Z,10.76
2023-05-14T04:26:44.852Z,10.78
2023-05-14T04:29:12.056Z,10.80
2023-05-14T04:31:39.289Z,10.79
2023-05-14T04:34:06.384Z,10.80
2023-05-14T04:36:33.755Z,10.78
2023-05-14T04:39:00.837Z,10.74
2023-05-14T04:41:28.003Z,10.69
2023-05-14T04:43:56.698Z,10.62
2023-05-14T04:46:23.871Z,10.58
2023-05-14T04:48:52.226Z,10.53
2023-05-14T04:51:19.227Z,10.51
2023-05-14T04:53:46.785Z,10.48
2023-05-14T04:56:13.821Z,10.44
2023-05-14T04:58:41.352Z,10.40
2023-05-14T05:01:08.414Z,10.36
2023-05-14T05:03:35.701Z,10.31
2023-05-14T05:06:02.897Z,10.30
2023-05-14T05:08:30.011Z,10.30
2023-05-14T05:10:57.388Z,10.29
2023-05-14T05:13:29.545Z,10.28
2023-05-14T05:16:00.947Z,10.29
2023-05-14T05:18:35.934Z,10.27
2023-05-14T05:21:17.006Z,10.21
2023-05-14T05:23:45.614Z,10.21
2023-05-14T05:26:14.182Z,10.20
2023-05-14T05:28:45.573Z,10.23
2023-05-14T05:31:14.522Z,10.24
2023-05-14T05:33:46.071Z,10.25
2023-05-14T05:36:19.881Z,10.31
2023-05-14T05:39:12.460Z,10.35
2023-05-14T05:41:58.989Z,10.42
2023-05-14T05:44:41.302Z,10.42
2023-05-14T05:47:14.252Z,10.42
2023-05-14T05:49:51.762Z,10.45
2023-05-14T05:52:19.929Z,10.48
2023-05-14T05:54:52.200Z,10.48
2023-05-14T05:57:25.708Z,10.52
2023-05-14T06:00:07.240Z,10.59
2023-05-14T06:02:54.396Z,10.64
2023-05-14T06:05:26.220Z,10.71
2023-05-14T06:07:57.608Z,10.80
2023-05-14T06:10:30.213Z,10.92
2023-05-14T06:13:04.302Z,10.99
2023-05-14T06:15:33.125Z,11.00
2023-05-14T06:18:00.866Z,11.06
2023-05-14T06:20:29.086Z,11.13
2023-05-14T06:22:56.280Z,11.15
2023-05-14T06:25:23.438Z,11.32
2023-05-14T06:27:50.604Z,11.50
2023-05-14T06:30:26.670Z,11.78
2023-05-14T06:32:55.072Z,11.97
2023-05-14T06:35:22.520Z,12.00
2023-05-14T06:37:50.782Z,12.12
2023-05-14T06:40:24.017Z,12.25
2023-05-14T06:42:52.806Z,12.28
2023-05-14T06:45:21.037Z,12.36
2023-05-14T06:47:55.105Z,12.54
2023-05-14T06:50:23.853Z,12.66
2023-05-14T06:52:57.783Z,12.69
2023-05-14T06:55:28.944Z,12.98
2023-05-14T06:57:56.606Z,13.05
2023-05-14T07:00:27.616Z,13.30
2023-05-14T07:03:07.580Z,13.57
2023-05-14T07:05:38.853Z,13.53
2023-05-14T07:08:06.220Z,13.66
2023-05-14T07:10:36.995Z,13.68
2023-05-14T07:13:04.084Z,13.81
2023-05-14T07:15:32.248Z,14.13
2023-05-14T07:17:59.985Z,14.17
2023-05-14T07:20:29.742Z,14.20
2023-05-14T07:22:59.413Z,14.34
2023-05-14T07:25:28.235Z,14.44
2023-05-14T07:27:56.391Z,14.60
2023-05-14T07:30:24.438Z,14.74
2023-05-14T07:32:52.557Z,14.71
2023-05-14T07:35:19.695Z,14.76
2023-05-14T07:37:47.001Z,14.80
2023-05-14T07:40:14.115Z,15.01
2023-05-14T07:42:42.111Z,15.17
2023-05-14T07:45:10.183Z,15.19
2023-05-14T07:47:38.313Z,15.32
2023-05-14T07:50:06.119Z,15.46
2023-05-14T07:52:36.146Z,15.38
2023-05-14T07:55:04.754Z,15.58
2023-05-14T07:57:32.105Z,15.50
2023-05-14T08:00:02.741Z,15.76
2023-05-14T08:02:39.689Z,15.80
2023-05-14T08:05:12.450Z,15.86
2023-05-14T08:07:44.709Z,15.89
2023-05-14T08:10:12.745Z,15.94
2023-05-14T08:12:40.353Z,15.97
2023-05-14T08:15:08.127Z,16.09
2023-05-14T08:17:37.030Z,16.13
2023-05-14T08:20:07.100Z,16.18
2023-05-14T08:22:34.732Z,16.37
2023-05-14T08:25:03.789Z,16.52
2023-05-14T08:27:35.028Z,16.55
2023-05-14T08:30:02.269Z,16.65
2023-05-14T08:32:29.992Z,16.61
2023-05-14T08:35:00.775Z,16.78
2023-05-14T08:37:28.096Z,16.74
2023-05-14T08:39:57.738Z,16.92
2023-05-14T08:42:25.196Z,16.97
2023-05-14T08:45:02.236Z,17.10
2023-05-14T08:47:36.047Z,17.28
2023-05-14T08:50:05.263Z,17.52
2023-05-14T08:52:32.727Z,17.56
2023-05-14T08:55:01.454Z,17.66
2023-05-14T08:57:29.673Z,17.60
2023-05-14T08:59:57.730Z,17.60
2023-05-14T09:02:29.416Z,17.78
2023-05-14T09:05:00.249Z,17.79
2023-05-14T09:07:31.866Z,17.55
2023-05-14T09:09:59.672Z,17.45
2023-05-14T09:12:27.045Z,17.49
2023-05-14T09:14:54.363Z,17.59
2023-05-14T09:17:21.387Z,17.57
2023-05-14T09:19:52.197Z,17.66
2023-05-14T09:22:24.355Z,17.73
2023-05-14T09:25:15.403Z,17.85
2023-05-14T09:27:58.514Z,17.89
2023-05-14T09:30:32.565Z,17.97
2023-05-14T09:33:05.794Z,17.93
2023-05-14T09:35:34.316Z,18.04
2023-05-14T09:38:04.917Z,17.95
2023-05-14T09:40:35.220Z,18.02
2023-05-14T09:43:06.443Z,17.98
2023-05-14T09:45:36.155Z,18.10
2023-05-14T09:48:04.933Z,18.25
2023-05-14T09:50:45.272Z,18.48
2023-05-14T09:53:15.578Z,18.43
2023-05-14T09:55:42.686Z,18.63
2023-05-14T09:58:10.492Z,18.83
2023-05-14T10:00:40.606Z,18.75
2023-05-14T10:03:08.419Z,18.81
2023-05-14T10:05:42.098Z,18.85
2023-05-14T10:08:13.561Z,18.83
2023-05-14T10:10:41.647Z,18.89
2023-05-14T10:13:21.607Z,19.14
2023-05-14T10:15:52.831Z,19.22
2023-05-14T10:18:22.789Z,19.04
2023-05-14T10:21:09.337Z,19.09
2023-05-14T10:23:40.799Z,19.19
2023-05-14T10:26:09.031Z,19.32
2023-05-14T10:28:40.676Z,19.33
2023-05-14T10:31:10.812Z,19.52
2023-05-14T10:33:50.631Z,19.68
2023-05-14T10:36:26.604Z,19.55
2023-05-14T10:38:57.651Z,19.76
2023-05-14T10:41:25.814Z,19.71
2023-05-14T10:43:53.186Z,19.87
2023-05-14T10:46:21.942Z,19.95
2023-05-14T10:48:50.420Z,19.93
2023-05-14T10:51:23.672Z,20.14
2023-05-14T10:53:51.534Z,19.94
2023-05-14T10:56:20.201Z,19.94
2023-05-14T11:01:39.637Z,19.84
2023-05-14T11:04:07.122Z,19.88
2023-05-14T11:06:35.989Z,20.03
2023-05-14T11:09:03.720Z,20.17
2023-05-14T11:11:35.834Z,20.24
2023-05-14T11:14:04.502Z,20.33
2023-05-14T11:16:32.726Z,20.25
2023-05-14T11:19:05.701Z,20.20
2023-05-14T11:21:33.926Z,20.49
2023-05-14T11:24:06.534Z,20.44
2023-05-14T11:26:38.716Z,20.45
2023-05-14T11:29:10.812Z,20.45
2023-05-14T11:31:39.927Z,20.33
2023-05-14T11:34:08.322Z,20.32
2023-05-14T11:36:37.718Z,20.59
2023-05-14T11:39:06.218Z,20.56
2023-05-14T11:41:35.442Z,20.53
2023-05-14T11:44:08.453Z,20.65
2023-05-14T11:46:36.975Z,20.47
2023-05-14T11:49:08.077Z,20.56
2023-05-14T11:51:37.286Z,20.81
2023-05-14T11:54:04.566Z,20.68
2023-05-14T11:56:33.032Z,20.69
2023-05-14T11:59:01.385Z,20.82
2023-05-14T12:01:30.454Z,21.06
2023-05-14T12:04:29.088Z,21.09
2023-05-14T12:06:59.398Z,21.15
2023-05-14T12:09:27.194Z,21.07
2023-05-14T12:11:55.709Z,21.26
2023-05-14T12:14:27.474Z,21.22
2023-05-14T12:16:55.692Z,21.31
2023-05-14T12:19:27.352Z,21.37
2023-05-14T12:21:54.870Z,21.43
2023-05-14T12:24:22.502Z,21.48
2023-05-14T12:26:51.969Z,21.20
2023-05-14T12:29:24.838Z,21.26
2023-05-14T12:31:52.480Z,21.17
2023-05-14T12:34:20.541Z,21.04
2023-05-14T12:36:47.970Z,21.14
2023-05-14T12:39:16.430Z,21.08
2023-05-14T12:41:46.884Z,20.98
2023-05-14T12:44:15.282Z,21.51
2023-05-14T12:46:43.800Z,21.64
2023-05-14T12:49:14.495Z,21.23
2023-05-14T12:51:41.546Z,21.58
2023-05-14T12:54:14.712Z,21.83
2023-05-14T12:56:48.478Z,21.79
2023-05-14T12:59:19.811Z,21.25
2023-05-14T13:01:48.316Z,21.36
2023-05-14T13:04:16.653Z,21.14
2023-05-14T13:06:45.942Z,21.18
2023-05-14T13:09:13.496Z,21.52
2023-05-14T13:11:43.782Z,21.61
2023-05-14T13:14:15.280Z,21.78
2023-05-14T13:16:45.972Z,21.90
2023-05-14T13:19:17.587Z,21.47
2023-05-14T13:21:45.720Z,21.61
2023-05-14T13:24:13.282Z,21.96
2023-05-14T13:26:41.132Z,21.87
2023-05-14T13:29:09.111Z,21.75
2023-05-14T13:31:37.613Z,21.87
2023-05-14T13:34:05.196Z,22.01
2023-05-14T13:36:45.331Z,21.94
2023-05-14T13:39:14.629Z,21.61
2023-05-14T13:41:42.782Z,21.72
2023-05-14T13:44:14.081Z,21.78
2023-05-14T13:46:48.466Z,21.64
2023-05-14T13:49:16.969Z,21.62
2023-05-14T13:51:44.395Z,21.76
2023-05-14T13:54:12.673Z,21.95
2023-05-14T13:56:41.261Z,21.99
2023-05-14T13:59:09.418Z,22.32
2023-05-14T14:01:37.132Z,22.31
2023-05-14T14:04:05.204Z,22.11
2023-05-14T14:06:40.730Z,21.85
2023-05-14T14:09:09.283Z,21.68
2023-05-14T14:11:38.949Z,21.49
2023-05-14T14:14:07.996Z,21.55
2023-05-14T14:16:37.060Z,21.80
2023-05-14T14:19:05.290Z,21.76
2023-05-14T14:21:48.336Z,21.99
2023-05-14T14:24:26.305Z,22.04
2023-05-14T14:26:55.381Z,22.26
2023-05-14T14:29:24.744Z,22.43
2023-05-14T14:31:53.578Z,22.21
2023-05-14T14:34:22.128Z,22.50
2023-05-14T14:36:50.793Z,22.48
2023-05-14T14:39:19.657Z,22.04
2023-05-14T14:41:47.961Z,21.91
2023-05-14T14:44:16.087Z,21.89
2023-05-14T14:46:43.626Z,21.98
2023-05-14T14:49:12.018Z,22.28
2023-05-14T14:51:40.383Z,22.12
2023-05-14T14:54:08.568Z,21.86
2023-05-14T14:56:37.807Z,21.97
2023-05-14T14:59:05.915Z,22.47
2023-05-14T15:01:37.439Z,22.21
2023-05-14T15:04:06.502Z,22.10
2023-05-14T15:06:51.464Z,22.29
2023-05-14T15:09:23.509Z,22.15
2023-05-14T15:11:52.539Z,21.62
2023-05-14T15:14:25.931Z,21.42
2023-05-14T15:16:54.536Z,21.43
2023-05-14T15:19:22.457Z,21.32
2023-05-14T15:21:50.752Z,21.15
2023-05-14T15:24:19.073Z,21.09
2023-05-14T15:26:47.272Z,20.85
2023-05-14T15:29:16.355Z,20.69
2023-05-14T15:31:45.841Z,20.78
2023-05-14T15:34:14.611Z,20.83
2023-05-14T15:36:42.643Z,20.50
2023-05-14T15:39:14.441Z,20.49
2023-05-14T15:41:45.053Z,20.35
2023-05-14T15:44:13.675Z,20.14
2023-05-14T15:46:41.487Z,20.16
2023-05-14T15:49:11.315Z,20.30
2023-05-14T15:51:39.384Z,20.52
2023-05-14T15:54:07.685Z,20.35
2023-05-14T15:56:35.744Z,20.45
2023-05-14T15:59:07.617Z,20.52
2023-05-14T16:01:35.683Z,20.82
2023-05-14T16:04:04.885Z,20.88
2023-05-14T16:06:35.089Z,20.81
2023-05-14T16:09:04.343Z,20.92
2023-05-14T16:11:32.746Z,20.80
2023-05-14T16:14:00.180Z,20.92
2023-05-14T16:16:27.292Z,20.92
2023-05-14T16:18:55.308Z,21.01
2023-05-14T16:21:23.717Z,20.77
2023-05-14T16:23:51.215Z,20.81
2023-05-14T16:26:20.715Z,20.85
2023-05-14T16:28:48.999Z,20.98
2023-05-14T16:31:17.088Z,21.00
2023-05-14T16:33:45.178Z,20.90
2023-05-14T16:36:17.364Z,20.80
2023-05-14T16:38:57.181Z,20.93
2023-05-14T16:41:40.914Z,20.75
2023-05-14T16:44:09.636Z,20.66
2023-05-14T16:46:43.879Z,20.64
2023-05-14T16:49:11.641Z,20.67
2023-05-14T16:51:47.215Z,20.59
2023-05-14T16:54:14.553Z,20.61
2023-05-14T16:56:43.293Z,20.48
2023-05-14T16:59:11.584Z,20.19
2023-05-14T17:01:39.356Z,20.03
2023-05-14T17:04:06.619Z,20.10
2023-05-14T17:06:35.436Z,19.98
2023-05-14T17:09:07.888Z,19.88
2023-05-14T17:11:41.106Z,20.02
2023-05-14T17:14:09.104Z,19.92
2023-05-14T17:16:36.543Z,19.94
2023-05-14T17:19:07.862Z,20.05
2023-05-14T17:21:45.141Z,19.97
2023-05-14T17:24:15.536Z,19.95
2023-05-14T17:26:42.644Z,19.92
2023-05-14T17:29:10.687Z,19.94
2023-05-14T17:31:38.187Z,19.60
2023-05-14T17:34:05.197Z,19.51
2023-05-14T17:36:36.628Z,19.45
2023-05-14T17:39:05.396Z,19.45
2023-05-14T17:41:32.404Z,19.45
2023-05-14T17:44:00.904Z,19.36
2023-05-14T17:46:28.230Z,19.19
2023-05-14T17:48:55.672Z,19.25
2023-05-14T17:51:22.694Z,19.24
2023-05-14T17:53:50.480Z,19.17
2023-05-14T17:56:18.771Z,19.05
2023-05-14T17:58:46.563Z,19.03
2023-05-14T18:01:14.707Z,19.00
2023-05-14T18:03:42.611Z,18.76
2023-05-14T18:06:10.782Z,18.39
2023-05-14T18:08:38.168Z,18.38
2023-05-14T18:11:05.440Z,18.36
2023-05-14T18:13:32.556Z,18.35
2023-05-14T18:16:00.925Z,18.28
2023-05-14T18:18:28.150Z,18.21
2023-05-14T18:20:55.392Z,18.17
2023-05-14T18:23:27.882Z,18.15
2023-05-14T18:25:55.434Z,18.14
2023-05-14T18:28:23.641Z,18.15
2023-05-14T18:30:51.409Z,18.04
2023-05-14T18:33:19.266Z,17.91
2023-05-14T18:35:46.525Z,17.87
2023-05-14T18:38:14.061Z,17.74
2023-05-14T18:40:41.401Z,17.73
2023-05-14T18:43:08.903Z,17.49
2023-05-14T18:45:36.235Z,17.55
2023-05-14T18:48:03.405Z,17.50
2023-05-14T18:50:31.078Z,17.41
2023-05-14T18:52:58.428Z,17.34
2023-05-14T18:55:25.845Z,17.28
2023-05-14T18:57:53.232Z,17.17
2023-05-14T19:00:20.756Z,17.17
2023-05-14T19:02:48.050Z,16.96
2023-05-14T19:05:15.250Z,16.94
2023-05-14T19:07:44.100Z,16.84
2023-05-14T19:10:11.331Z,16.81
2023-05-14T19:12:38.901Z,16.71
2023-05-14T19:15:06.923Z,16.67
2023-05-14T19:17:38.969Z,16.52
2023-05-14T19:20:06.736Z,16.52
2023-05-14T19:22:33.794Z,16.38
2023-05-14T19:25:00.769Z,16.37
2023-05-14T19:27:27.922Z,16.35
2023-05-14T19:29:55.076Z,16.24
2023-05-14T19:32:23.177Z,16.20
2023-05-14T19:34:51.618Z,16.14
2023-05-14T19:37:22.092Z,16.12
2023-05-14T19:39:49.317Z,16.10
2023-05-14T19:42:16.806Z,15.96
2023-05-14T19:44:44.311Z,15.95
2023-05-14T19:47:12.099Z,15.87
2023-05-14T19:49:39.879Z,15.82
2023-05-14T19:52:07.005Z,15.80
2023-05-14T19:54:34.068Z,15.72
2023-05-14T19:57:01.416Z,15.70
2023-05-14T19:59:30.118Z,15.69
2023-05-14T20:02:00.997Z,15.65
2023-05-14T20:04:28.493Z,15.58
2023-05-14T20:06:55.746Z,15.56
2023-05-14T20:09:23.727Z,15.59
2023-05-14T20:11:50.903Z,15.55
2023-05-14T20:14:18.035Z,15.46
2023-05-14T20:16:45.436Z,15.43
2023-05-14T20:19:14.555Z,15.42
2023-05-14T20:21:41.810Z,15.37
2023-05-14T20:24:09.365Z,15.35
2023-05-14T20:26:37.242Z,15.21
2023-05-14T20:29:04.576Z,15.14
2023-05-14T20:31:32.414Z,15.05
2023-05-14T20:34:00.880Z,15.05
2023-05-14T20:36:30.047Z,14.97
2023-05-14T20:38:57.424Z,14.90
2023-05-14T20:41:24.916Z,14.84
2023-05-14T20:43:52.090Z,14.76
2023-05-14T20:46:19.351Z,14.70
2023-05-14T20:48:47.439Z,14.70
2023-05-14T20:51:14.532Z,14.65
2023-05-14T20:53:41.618Z,14.62
2023-05-14T20:56:08.950Z,14.57
2023-05-14T20:58:36.096Z,14.52
2023-05-14T21:01:04.994Z,14.54
2023-05-14T21:03:32.332Z,14.58
2023-05-14T21:06:00.838Z,14.53
2023-05-14T21:08:28.000Z,14.49
2023-05-14T21:10:55.763Z,14.51
2023-05-14T21:13:27.032Z,14.55
2023-05-14T21:15:58.024Z,14.53
2023-05-14T21:18:27.578Z,14.50
2023-05-14T21:20:54.719Z,14.57
2023-05-14T21:23:21.799Z,14.58
2023-05-14T21:25:48.755Z,14.52
2023-05-14T21:28:28.521Z,14.54
2023-05-14T21:30:55.543Z,14.50
2023-05-14T21:33:23.986Z,14.49
2023-05-14T21:35:51.127Z,14.48
2023-05-14T21:38:37.536Z,14.46
2023-05-14T21:41:05.193Z,14.45
2023-05-14T21:43:32.518Z,14.45
2023-05-14T21:45:59.721Z,14.43
2023-05-14T21:48:30.111Z,14.43
2023-05-14T21:50:57.672Z,14.39
2023-05-14T21:53:24.836Z,14.37
2023-05-14T21:55:52.000Z,14.35
2023-05-14T21:58:19.724Z,14.35
2023-05-14T22:00:46.840Z,14.34
2023-05-14T22:03:13.942Z,14.35
2023-05-14T22:05:41.158Z,14.39
2023-05-14T22:08:08.204Z,14.31
2023-05-14T22:10:35.345Z,14.30
2023-05-14T22:13:02.247Z,14.26
2023-05-14T22:15:29.443Z,14.27
2023-05-14T22:17:57.454Z,14.25
2023-05-14T22:20:24.555Z,14.27
2023-05-14T22:22:51.998Z,14.23
2023-05-14T22:28:49.024Z,14.17
2023-05-14T22:31:16.269Z,14.23
2023-05-14T22:33:43.328Z,14.15
2023-05-14T22:36:10.823Z,14.14
2023-05-14T22:38:38.793Z,14.06
2023-05-14T22:41:06.012Z,14.01
2023-05-14T22:43:33.673Z,13.96
2023-05-14T22:46:01.016Z,13.94
2023-05-14T22:48:28.745Z,13.90
2023-05-14T22:50:56.216Z,13.82
2023-05-14T22:53:25.425Z,13.77
2023-05-14T22:55:52.650Z,13.71
2023-05-14T22:58:20.789Z,13.68
2023-05-14T23:00:47.868Z,13.68
2023-05-14T23:03:15.432Z,13.66
2023-05-14T23:05:42.498Z,13.56
2023-05-14T23:08:09.658Z,13.51
2023-05-14T23:10:36.781Z,13.47
2023-05-14T23:13:04.336Z,13.46
2023-05-14T23:15:31.709Z,13.51
2023-05-14T23:17:58.854Z,13.48
2023-05-14T23:20:28.951Z,13.45
2023-05-14T23:22:56.290Z,13.44
2023-05-14T23:25:24.462Z,13.40
2023-05-14T23:27:52.092Z,13.38
2023-05-14T23:30:19.329Z,13.40
2023-05-14T23:32:46.559Z,13.36
2023-05-14T23:35:14.787Z,13.31
2023-05-14T23:37:47.472Z,13.30
2023-05-14T23:40:15.907Z,13.25
2023-05-14T23:42:43.211Z,13.22
2023-05-14T23:45:10.667Z,13.16
2023-05-14T23:47:37.958Z,13.12
2023-05-14T23:50:05.301Z,13.08
2023-05-14T23:52:33.771Z,13.06
2023-05-14T23:55:01.031Z,13.02
2023-05-14T23:57:28.528Z,12.96
2023-05-14T23:59:55.773Z,12.99
